Detall de PIREP

Printer-friendly versionPDF version

[2014/10/03 16:46:00]
Flight IATA:CT3303
Pilot Number:012
Company ICAO:CAT
Aircraft Type:MD11/E
PAX:0
Aircraft Registration:CARGO
Departing Airport: DTTA
Destination Airport: LEZG
Alternate Airport:LEBL
Online: VATSIM
Route:TOBIB/N0472F360 UA725 TANIT UM733 PIRIX UM733 CAR UM732 GINOX/N0472F370 UM601 BCN UN725 LOBAR
Flight Level:F370
No Slew and time accel
No pause
Crash detect
Detect pilot in Cockpit between each 30 and 45 minutes
16:46 Zero fuel Weight: 351755 Lbs, Fuel Weight: 52244 Lbs
16:46 VATSIM:DTTA 031630Z 11003KT 040V140 9999 SCT026TCU FEW030CB 23/19 Q1015
16:46 VATSIM:LEZG 031630Z VRB02KT 9999 FEW035 26/09 Q1019
16:50 Parking Brakes off
16:56 Take-off
16:56 Take off Weight: 402701 Lbs
16:56 Wind: 092º @ 003 Knots Heading: 112º
16:56 POS N36º 50´ 58´´ E010º 13´ 57´´
16:56 Flaps:3 at 190 Knots
16:56 Gear Up: 196 Knots
16:57 Flaps:2 at 193 Knots
16:57 Flaps:3 at 196 Knots
16:57 Flaps:2 at 197 Knots
16:57 Flaps:1 at 198 Knots
16:57 Flaps:0 at 205 Knots
17:11 Wind:165º@015 Knots Heading: 345º Ground Speed: 498 Knots Altitude 36076 ft
17:26 Wind:288º@008 Knots Heading: 326º Ground Speed: 477 Knots Altitude 36082 ft
17:34 TOC
17:34 Fuel Weight: 36768 Lb
17:41 Wind:307º@013 Knots Heading: 273º Ground Speed: 471 Knots Altitude 39133 ft
17:56 Wind:315º@015 Knots Heading: 278º Ground Speed: 470 Knots Altitude 39173 ft
18:11 Wind:324º@021 Knots Heading: 288º Ground Speed: 464 Knots Altitude 39183 ft
18:13 TOD
18:13 Fuel Weight: 28210 Lb
18:26 Wind:292º@002 Knots Heading: 222º Ground Speed: 285 Knots Altitude 11151 ft
18:26 Flaps:1 at 243 Knots
18:27 Flaps:2 at 244 Knots
18:27 Flaps:3 at 243 Knots
18:28 Flaps:4 at 197 Knots
18:28 Flaps:3 at 198 Knots
18:28 Flaps:4 at 197 Knots
18:28 Flaps:5 at 197 Knots
18:28 Flaps:6 at 197 Knots
18:29 Flaps:7 at 182 Knots
18:29 Gear Down: 180 Knots
18:32 Flaps:8 at 158 Knots
18:32 Flaps:7 at 159 Knots
18:34 TouchDown:Rate -342 ft/min Speed: 143 Knots
18:34 VATSIM:LEZG 031800Z 00000KT 9999 FEW040 24/09 Q1019
18:34 Land
18:34 Wind:000º@000 Knots
18:34 Heading: 299º
18:34 Flight Duration: 01:38
18:34 Landing Weight: 376961 Lbs
18:34 POS N41º 39´ 46´´ W001º 01´ 30´´
18:38 Parking brakes on
18:38 Block to Block Duration: 01:48
18:38 Final Fuel: 24770 Lbls
18:38 Spent Fuel: 27473 Lbls
18:38 Flight Length: 709 NM
18:38 TOD Land Length: 111 NM

Exportar CSV

Powered by Drupal - Modified by Danger4k